sensor_id;sensor_type;location;lat;lon;timestamp;pressure;altitude;pressure_sealevel;temperature;humidity
43161;BME280;40968;52.342;5.528;2023-11-21T00:01:06;101063.06;;;7.72;94.39
43161;BME280;40968;52.342;5.528;2023-11-21T00:03:34;101014.94;;;7.43;94.32
43161;BME280;40968;52.342;5.528;2023-11-21T00:06:02;101034.97;;;7.50;94.20
43161;BME280;40968;52.342;5.528;2023-11-21T00:08:29;100980.22;;;7.12;94.07
43161;BME280;40968;52.342;5.528;2023-11-21T00:10:56;101039.88;;;7.42;94.06
43161;BME280;40968;52.342;5.528;2023-11-21T00:13:25;101073.47;;;7.60;94.10
43161;BME280;40968;52.342;5.528;2023-11-21T00:15:52;101039.28;;;7.37;94.02
43161;BME280;40968;52.342;5.528;2023-11-21T00:18:19;100930.44;;;6.67;93.91
43161;BME280;40968;52.342;5.528;2023-11-21T00:20:45;100987.13;;;7.01;94.13
43161;BME280;40968;52.342;5.528;2023-11-21T00:23:13;101039.97;;;7.24;93.88
43161;BME280;40968;52.342;5.528;2023-11-21T00:25:40;101084.88;;;7.48;93.95
43161;BME280;40968;52.342;5.528;2023-11-21T00:28:06;100951.66;;;6.68;93.85
43161;BME280;40968;52.342;5.528;2023-11-21T00:30:33;101053.91;;;7.29;93.95
43161;BME280;40968;52.342;5.528;2023-11-21T00:33:00;101081.94;;;7.37;94.08
43161;BME280;40968;52.342;5.528;2023-11-21T00:35:26;101029.50;;;7.05;94.13
43161;BME280;40968;52.342;5.528;2023-11-21T00:37:53;100938.75;;;6.44;94.01
43161;BME280;40968;52.342;5.528;2023-11-21T00:40:21;100951.66;;;6.52;94.15
43161;BME280;40968;52.342;5.528;2023-11-21T00:42:47;101059.00;;;7.18;94.22
43161;BME280;40968;52.342;5.528;2023-11-21T00:45:14;101034.44;;;6.97;94.29
43161;BME280;40968;52.342;5.528;2023-11-21T00:47:41;101089.16;;;7.35;94.48
43161;BME280;40968;52.342;5.528;2023-11-21T00:50:08;101083.84;;;7.35;94.37
43161;BME280;40968;52.342;5.528;2023-11-21T00:52:35;101086.94;;;7.27;94.41
43161;BME280;40968;52.342;5.528;2023-11-21T00:55:02;101091.84;;;7.35;94.80
43161;BME280;40968;52.342;5.528;2023-11-21T00:57:29;101097.16;;;7.35;94.91
43161;BME280;40968;52.342;5.528;2023-11-21T00:59:56;101065.47;;;7.14;94.83
43161;BME280;40968;52.342;5.528;2023-11-21T01:02:23;101107.75;;;7.36;94.85
43161;BME280;40968;52.342;5.528;2023-11-21T01:04:50;101026.06;;;6.87;95.11
43161;BME280;40968;52.342;5.528;2023-11-21T01:07:17;101063.03;;;7.09;95.08
43161;BME280;40968;52.342;5.528;2023-11-21T01:09:45;101050.41;;;6.97;95.35
43161;BME280;40968;52.342;5.528;2023-11-21T01:12:12;101074.56;;;7.10;95.27
43161;BME280;40968;52.342;5.528;2023-11-21T01:14:40;101121.00;;;7.38;95.50
43161;BME280;40968;52.342;5.528;2023-11-21T01:17:06;101095.22;;;7.22;95.58
43161;BME280;40968;52.342;5.528;2023-11-21T01:19:33;101078.00;;;7.12;95.52
43161;BME280;40968;52.342;5.528;2023-11-21T01:21:59;101127.19;;;7.38;95.62
43161;BME280;40968;52.342;5.528;2023-11-21T01:24:26;101075.53;;;7.09;95.47
43161;BME280;40968;52.342;5.528;2023-11-21T01:26:52;100993.13;;;6.56;95.67
43161;BME280;40968;52.342;5.528;2023-11-21T01:29:19;101129.75;;;7.40;95.84
43161;BME280;40968;52.342;5.528;2023-11-21T01:31:47;101129.75;;;7.40;95.93
43161;BME280;40968;52.342;5.528;2023-11-21T01:34:13;101129.75;;;7.40;95.89
43161;BME280;40968;52.342;5.528;2023-11-21T01:36:40;101138.72;;;7.39;95.90
43161;BME280;40968;52.342;5.528;2023-11-21T01:39:07;101102.59;;;7.17;96.24
43161;BME280;40968;52.342;5.528;2023-11-21T01:41:36;101096.41;;;7.17;96.15
43161;BME280;40968;52.342;5.528;2023-11-21T01:44:03;101110.25;;;7.23;96.18
43161;BME280;40968;52.342;5.528;2023-11-21T01:46:32;101135.09;;;7.40;96.40
43161;BME280;40968;52.342;5.528;2023-11-21T01:49:01;101105.06;;;7.20;96.37
43161;BME280;40968;52.342;5.528;2023-11-21T01:51:28;101138.56;;;7.42;96.40
43161;BME280;40968;52.342;5.528;2023-11-21T01:53:55;101141.13;;;7.43;96.48
43161;BME280;40968;52.342;5.528;2023-11-21T01:56:22;101004.56;;;6.58;96.29
43161;BME280;40968;52.342;5.528;2023-11-21T01:58:48;101144.59;;;7.45;96.40
43161;BME280;40968;52.342;5.528;2023-11-21T02:01:15;101093.81;;;7.15;96.80
43161;BME280;40968;52.342;5.528;2023-11-21T02:03:43;101148.00;;;7.47;96.61
43161;BME280;40968;52.342;5.528;2023-11-21T02:06:11;101150.56;;;7.49;96.52
43161;BME280;40968;52.342;5.528;2023-11-21T02:08:38;101106.06;;;7.19;96.51
43161;BME280;40968;52.342;5.528;2023-11-21T02:11:05;101063.88;;;6.94;96.52
43161;BME280;40968;52.342;5.528;2023-11-21T02:13:32;101166.59;;;7.49;96.59
43161;BME280;40968;52.342;5.528;2023-11-21T02:15:59;101164.69;;;7.51;96.75
43161;BME280;40968;52.342;5.528;2023-11-21T02:18:25;101171.75;;;7.52;96.77
43161;BME280;40968;52.342;5.528;2023-11-21T02:20:55;101111.38;;;7.19;96.72
43161;BME280;40968;52.342;5.528;2023-11-21T02:23:22;101115.00;;;7.18;96.82
43161;BME280;40968;52.342;5.528;2023-11-21T02:25:54;101170.88;;;7.52;97.02
43161;BME280;40968;52.342;5.528;2023-11-21T02:28:20;101120.97;;;7.22;96.72
43161;BME280;40968;52.342;5.528;2023-11-21T02:30:50;101175.19;;;7.54;97.05
43161;BME280;40968;52.342;5.528;2023-11-21T02:33:20;101176.91;;;7.55;97.02
43161;BME280;40968;52.342;5.528;2023-11-21T02:35:47;101169.09;;;7.52;96.87
43161;BME280;40968;52.342;5.528;2023-11-21T02:38:13;101165.03;;;7.45;96.86
43161;BME280;40968;52.342;5.528;2023-11-21T02:40:42;101177.69;;;7.57;97.08
43161;BME280;40968;52.342;5.528;2023-11-21T02:43:09;101174.53;;;7.51;97.10
43161;BME280;40968;52.342;5.528;2023-11-21T02:45:35;101180.38;;;7.57;97.03
43161;BME280;40968;52.342;5.528;2023-11-21T02:48:02;101147.69;;;7.38;96.86
43161;BME280;40968;52.342;5.528;2023-11-21T02:50:29;101177.75;;;7.56;96.95
43161;BME280;40968;52.342;5.528;2023-11-21T02:52:56;101058.97;;;6.86;96.90
43161;BME280;40968;52.342;5.528;2023-11-21T02:55:25;101149.56;;;7.36;96.97
43161;BME280;40968;52.342;5.528;2023-11-21T02:57:53;101179.59;;;7.55;97.08
43161;BME280;40968;52.342;5.528;2023-11-21T03:00:21;101146.13;;;7.34;97.08
43161;BME280;40968;52.342;5.528;2023-11-21T03:02:49;101101.38;;;7.07;96.97
43161;BME280;40968;52.342;5.528;2023-11-21T03:05:16;101182.16;;;7.57;97.15
43161;BME280;40968;52.342;5.528;2023-11-21T03:07:42;101185.72;;;7.57;97.15
43161;BME280;40968;52.342;5.528;2023-11-21T03:10:09;101192.72;;;7.58;97.09
43161;BME280;40968;52.342;5.528;2023-11-21T03:12:36;101181.41;;;7.55;97.19
43161;BME280;40968;52.342;5.528;2023-11-21T03:15:05;101184.66;;;7.60;97.17
43161;BME280;40968;52.342;5.528;2023-11-21T03:17:32;101170.88;;;7.52;97.25
43161;BME280;40968;52.342;5.528;2023-11-21T03:19:59;101130.47;;;7.27;97.24
43161;BME280;40968;52.342;5.528;2023-11-21T03:22:26;101138.19;;;7.32;97.11
43161;BME280;40968;52.342;5.528;2023-11-21T03:24:52;101086.69;;;7.00;97.09
43161;BME280;40968;52.342;5.528;2023-11-21T03:27:19;101191.47;;;7.66;97.20
43161;BME280;40968;52.342;5.528;2023-11-21T03:29:46;101135.88;;;7.26;97.29
43161;BME280;40968;52.342;5.528;2023-11-21T03:32:13;101129.69;;;7.25;97.31
43161;BME280;40968;52.342;5.528;2023-11-21T03:34:54;101133.56;;;7.36;97.20
43161;BME280;40968;52.342;5.528;2023-11-21T03:37:21;101192.16;;;7.69;97.25
43161;BME280;40968;52.342;5.528;2023-11-21T03:39:48;101109.13;;;7.11;97.29
43161;BME280;40968;52.342;5.528;2023-11-21T03:42:14;101152.03;;;7.39;97.37
43161;BME280;40968;52.342;5.528;2023-11-21T03:44:41;101197.59;;;7.68;97.21
43161;BME280;40968;52.342;5.528;2023-11-21T03:47:07;101145.53;;;7.28;97.13
43161;BME280;40968;52.342;5.528;2023-11-21T03:49:35;101097.78;;;7.08;97.41
43161;BME280;40968;52.342;5.528;2023-11-21T03:52:02;101208.25;;;7.68;97.43
43161;BME280;40968;52.342;5.528;2023-11-21T03:54:29;101173.97;;;7.44;97.40
43161;BME280;40968;52.342;5.528;2023-11-21T03:56:55;101183.47;;;7.50;97.52
43161;BME280;40968;52.342;5.528;2023-11-21T03:59:22;101213.59;;;7.68;97.64
43161;BME280;40968;52.342;5.528;2023-11-21T04:01:49;101182.44;;;7.52;97.61
43161;BME280;40968;52.342;5.528;2023-11-21T04:04:16;100861.00;;;5.56;97.51
43161;BME280;40968;52.342;5.528;2023-11-21T04:06:44;101213.59;;;7.68;97.80
43161;BME280;40968;52.342;5.528;2023-11-21T04:09:10;101199.78;;;7.59;97.71
43161;BME280;40968;52.342;5.528;2023-11-21T04:11:37;101217.00;;;7.70;97.78
43161;BME280;40968;52.342;5.528;2023-11-21T04:14:04;101212.63;;;7.69;97.95
43161;BME280;40968;52.342;5.528;2023-11-21T04:16:31;101224.06;;;7.71;97.80
43161;BME280;40968;52.342;5.528;2023-11-21T04:18:58;101146.03;;;7.19;97.94
43161;BME280;40968;52.342;5.528;2023-11-21T04:21:25;101208.75;;;7.58;98.02
43161;BME280;40968;52.342;5.528;2023-11-21T04:23:53;101110.81;;;6.96;97.95
43161;BME280;40968;52.342;5.528;2023-11-21T04:26:20;101240.84;;;7.73;98.43
43161;BME280;40968;52.342;5.528;2023-11-21T04:28:47;101242.56;;;7.74;98.40
43161;BME280;40968;52.342;5.528;2023-11-21T04:31:13;101115.13;;;6.99;98.31
43161;BME280;40968;52.342;5.528;2023-11-21T04:33:40;101188.44;;;7.40;98.49
43161;BME280;40968;52.342;5.528;2023-11-21T04:36:07;101162.09;;;7.18;98.55
43161;BME280;40968;52.342;5.528;2023-11-21T04:38:33;101261.16;;;7.75;98.65
43161;BME280;40968;52.342;5.528;2023-11-21T04:41:01;101263.81;;;7.75;98.69
43161;BME280;40968;52.342;5.528;2023-11-21T04:43:28;101228.72;;;7.51;98.62
43161;BME280;40968;52.342;5.528;2023-11-21T04:45:55;101262.78;;;7.78;98.54
43161;BME280;40968;52.342;5.528;2023-11-21T04:48:21;101222.44;;;7.52;99.05
43161;BME280;40968;52.342;5.528;2023-11-21T04:50:48;101270.75;;;7.79;98.94
43161;BME280;40968;52.342;5.528;2023-11-21T04:53:15;101265.31;;;7.81;99.02
43161;BME280;40968;52.342;5.528;2023-11-21T04:55:41;101235.25;;;7.61;99.07
43161;BME280;40968;52.342;5.528;2023-11-21T04:58:09;101269.72;;;7.82;99.16
43161;BME280;40968;52.342;5.528;2023-11-21T05:00:37;101279.41;;;7.83;99.15
43161;BME280;40968;52.342;5.528;2023-11-21T05:03:04;101206.34;;;7.38;99.27
43161;BME280;40968;52.342;5.528;2023-11-21T05:05:30;101236.38;;;7.57;99.24
43161;BME280;40968;52.342;5.528;2023-11-21T05:07:57;101243.34;;;7.60;99.33
43161;BME280;40968;52.342;5.528;2023-11-21T05:10:24;101166.56;;;7.17;99.36
43161;BME280;40968;52.342;5.528;2023-11-21T05:12:50;101258.66;;;7.72;99.48
43161;BME280;40968;52.342;5.528;2023-11-21T05:15:18;101243.50;;;7.57;99.45
43161;BME280;40968;52.342;5.528;2023-11-21T05:17:46;101295.19;;;7.88;99.59
43161;BME280;40968;52.342;5.528;2023-11-21T05:20:15;101298.59;;;7.90;99.73
43161;BME280;40968;52.342;5.528;2023-11-21T05:22:46;101246.97;;;7.59;99.68
43161;BME280;40968;52.342;5.528;2023-11-21T05:25:13;101239.38;;;7.51;99.78
43161;BME280;40968;52.342;5.528;2023-11-21T05:27:40;101275.19;;;7.79;99.85
43161;BME280;40968;52.342;5.528;2023-11-21T05:30:07;101222.53;;;7.51;99.71
43161;BME280;40968;52.342;5.528;2023-11-21T05:32:39;101299.91;;;7.99;100.00
43161;BME280;40968;52.342;5.528;2023-11-21T05:35:07;101285.53;;;7.85;99.91
43161;BME280;40968;52.342;5.528;2023-11-21T05:37:37;101312.22;;;8.01;100.00
43161;BME280;40968;52.342;5.528;2023-11-21T05:40:05;101275.03;;;7.82;100.00
43161;BME280;40968;52.342;5.528;2023-11-21T05:42:32;101312.91;;;8.05;100.00
43161;BME280;40968;52.342;5.528;2023-11-21T05:44:58;101246.09;;;7.58;100.00
43161;BME280;40968;52.342;5.528;2023-11-21T05:47:35;101196.00;;;7.32;100.00
43161;BME280;40968;52.342;5.528;2023-11-21T05:50:04;101186.38;;;7.29;100.00
43161;BME280;40968;52.342;5.528;2023-11-21T05:52:31;101328.59;;;8.11;100.00
43161;BME280;40968;52.342;5.528;2023-11-21T05:54:58;101191.69;;;7.29;100.00
43161;BME280;40968;52.342;5.528;2023-11-21T05:57:24;101339.09;;;8.14;100.00
43161;BME280;40968;52.342;5.528;2023-11-21T05:59:51;101337.19;;;8.16;100.00
43161;BME280;40968;52.342;5.528;2023-11-21T06:02:17;101322.72;;;8.04;100.00
43161;BME280;40968;52.342;5.528;2023-11-21T06:04:44;101341.50;;;8.19;100.00
43161;BME280;40968;52.342;5.528;2023-11-21T06:07:12;101354.78;;;8.20;100.00
43161;BME280;40968;52.342;5.528;2023-11-21T06:09:39;101333.16;;;8.09;100.00
43161;BME280;40968;52.342;5.528;2023-11-21T06:12:07;101195.16;;;7.31;100.00
43161;BME280;40968;52.342;5.528;2023-11-21T06:14:33;101304.50;;;7.96;100.00
43161;BME280;40968;52.342;5.528;2023-11-21T06:17:00;101202.88;;;7.36;100.00
43161;BME280;40968;52.342;5.528;2023-11-21T06:19:27;101213.97;;;7.44;100.00
43161;BME280;40968;52.342;5.528;2023-11-21T06:21:53;101374.59;;;8.32;100.00
43161;BME280;40968;52.342;5.528;2023-11-21T06:24:22;101374.41;;;8.35;100.00
43161;BME280;40968;52.342;5.528;2023-11-21T06:26:48;101221.97;;;7.44;100.00
43161;BME280;40968;52.342;5.528;2023-11-21T06:29:15;101370.47;;;8.42;100.00
43161;BME280;40968;52.342;5.528;2023-11-21T06:31:41;101372.25;;;8.42;100.00
43161;BME280;40968;52.342;5.528;2023-11-21T06:34:09;101290.34;;;7.94;100.00
43161;BME280;40968;52.342;5.528;2023-11-21T06:36:35;101311.78;;;8.09;100.00
43161;BME280;40968;52.342;5.528;2023-11-21T06:39:02;101328.16;;;8.19;100.00
43161;BME280;40968;52.342;5.528;2023-11-21T06:41:33;101345.03;;;8.35;100.00
43161;BME280;40968;52.342;5.528;2023-11-21T06:44:00;101378.50;;;8.58;100.00
43161;BME280;40968;52.342;5.528;2023-11-21T06:46:26;101379.25;;;8.60;100.00
43161;BME280;40968;52.342;5.528;2023-11-21T06:48:53;101398.38;;;8.69;100.00
43161;BME280;40968;52.342;5.528;2023-11-21T06:51:20;101315.50;;;8.22;100.00
43161;BME280;40968;52.342;5.528;2023-11-21T06:53:46;101382.88;;;8.59;100.00
43161;BME280;40968;52.342;5.528;2023-11-21T06:56:16;101407.00;;;8.74;100.00
43161;BME280;40968;52.342;5.528;2023-11-21T06:58:45;101338.16;;;8.31;100.00
43161;BME280;40968;52.342;5.528;2023-11-21T07:01:12;101369.56;;;8.42;100.00
43161;BME280;40968;52.342;5.528;2023-11-21T07:03:38;101377.88;;;8.53;100.00
43161;BME280;40968;52.342;5.528;2023-11-21T07:06:07;101432.59;;;8.78;100.00
43161;BME280;40968;52.342;5.528;2023-11-21T07:08:33;101271.41;;;7.83;100.00
43161;BME280;40968;52.342;5.528;2023-11-21T07:11:00;101416.81;;;8.73;100.00
43161;BME280;40968;52.342;5.528;2023-11-21T07:13:28;101436.81;;;8.82;100.00
43161;BME280;40968;52.342;5.528;2023-11-21T07:15:56;101448.25;;;8.84;100.00
43161;BME280;40968;52.342;5.528;2023-11-21T07:18:23;101432.84;;;8.73;100.00
43161;BME280;40968;52.342;5.528;2023-11-21T07:20:49;101454.41;;;8.86;100.00
43161;BME280;40968;52.342;5.528;2023-11-21T07:23:17;101457.16;;;8.85;100.00
43161;BME280;40968;52.342;5.528;2023-11-21T07:25:43;101446.91;;;8.77;100.00
43161;BME280;40968;52.342;5.528;2023-11-21T07:28:10;101407.72;;;8.45;100.00
43161;BME280;40968;52.342;5.528;2023-11-21T07:30:36;101434.81;;;8.70;100.00
43161;BME280;40968;52.342;5.528;2023-11-21T07:33:05;101440.03;;;8.73;100.00
43161;BME280;40968;52.342;5.528;2023-11-21T07:35:32;101474.41;;;8.95;100.00
43161;BME280;40968;52.342;5.528;2023-11-21T07:37:59;101483.19;;;8.97;100.00
43161;BME280;40968;52.342;5.528;2023-11-21T07:40:26;101364.44;;;8.23;100.00
43161;BME280;40968;52.342;5.528;2023-11-21T07:42:53;101489.22;;;9.01;100.00
43161;BME280;40968;52.342;5.528;2023-11-21T07:45:22;101366.13;;;8.24;100.00
43161;BME280;40968;52.342;5.528;2023-11-21T07:47:49;101488.44;;;8.99;100.00
43161;BME280;40968;52.342;5.528;2023-11-21T07:50:17;101509.38;;;9.06;100.00
43161;BME280;40968;52.342;5.528;2023-11-21T07:52:44;101480.94;;;8.89;100.00
43161;BME280;40968;52.342;5.528;2023-11-21T07:55:10;101507.59;;;9.07;100.00
43161;BME280;40968;52.342;5.528;2023-11-21T07:57:37;101503.19;;;9.06;100.00
43161;BME280;40968;52.342;5.528;2023-11-21T08:00:05;101517.91;;;9.13;100.00
43161;BME280;40968;52.342;5.528;2023-11-21T08:02:34;101412.94;;;8.47;100.00
43161;BME280;40968;52.342;5.528;2023-11-21T08:05:01;101369.94;;;8.20;100.00
43161;BME280;40968;52.342;5.528;2023-11-21T08:07:28;101522.50;;;9.11;100.00
43161;BME280;40968;52.342;5.528;2023-11-21T08:09:56;101473.97;;;8.71;100.00
43161;BME280;40968;52.342;5.528;2023-11-21T08:12:23;101522.75;;;9.06;100.00
43161;BME280;40968;52.342;5.528;2023-11-21T08:14:53;101549.75;;;9.18;100.00
43161;BME280;40968;52.342;5.528;2023-11-21T08:17:20;101385.00;;;8.05;100.00
43161;BME280;40968;52.342;5.528;2023-11-21T08:19:46;101567.53;;;9.19;100.00
43161;BME280;40968;52.342;5.528;2023-11-21T08:22:14;101528.22;;;8.89;100.00
43161;BME280;40968;52.342;5.528;2023-11-21T08:24:43;101540.53;;;8.91;100.00
43161;BME280;40968;52.342;5.528;2023-11-21T08:27:09;101587.72;;;9.24;100.00
43161;BME280;40968;52.342;5.528;2023-11-21T08:29:36;101571.84;;;9.21;100.00
43161;BME280;40968;52.342;5.528;2023-11-21T08:32:03;101456.31;;;8.52;100.00
43161;BME280;40968;52.342;5.528;2023-11-21T08:34:30;101481.84;;;8.74;100.00
43161;BME280;40968;52.342;5.528;2023-11-21T08:36:59;101586.25;;;9.35;100.00
43161;BME280;40968;52.342;5.528;2023-11-21T08:39:26;101590.56;;;9.37;100.00
43161;BME280;40968;52.342;5.528;2023-11-21T08:41:53;101609.19;;;9.39;100.00
43161;BME280;40968;52.342;5.528;2023-11-21T08:44:20;101610.13;;;9.38;100.00
43161;BME280;40968;52.342;5.528;2023-11-21T08:46:48;101617.31;;;9.37;100.00
43161;BME280;40968;52.342;5.528;2023-11-21T08:49:15;101544.16;;;8.90;100.00
43161;BME280;40968;52.342;5.528;2023-11-21T08:51:44;101610.50;;;9.32;100.00
43161;BME280;40968;52.342;5.528;2023-11-21T08:54:11;101605.59;;;9.24;100.00
43161;BME280;40968;52.342;5.528;2023-11-21T08:56:37;101629.84;;;9.37;100.00
43161;BME280;40968;52.342;5.528;2023-11-21T08:59:05;101644.16;;;9.36;100.00
43161;BME280;40968;52.342;5.528;2023-11-21T09:01:33;101650.34;;;9.36;100.00
43161;BME280;40968;52.342;5.528;2023-11-21T09:03:59;101651.22;;;9.37;100.00
43161;BME280;40968;52.342;5.528;2023-11-21T09:06:26;101541.28;;;8.61;100.00
43161;BME280;40968;52.342;5.528;2023-11-21T09:08:52;101667.44;;;9.34;100.00
43161;BME280;40968;52.342;5.528;2023-11-21T09:11:19;101566.56;;;8.72;100.00
43161;BME280;40968;52.342;5.528;2023-11-21T09:13:45;101585.78;;;8.78;100.00
43161;BME280;40968;52.342;5.528;2023-11-21T09:16:14;101653.72;;;9.08;100.00
43161;BME280;40968;52.342;5.528;2023-11-21T09:18:41;101659.31;;;9.19;100.00
43161;BME280;40968;52.342;5.528;2023-11-21T09:21:08;101566.22;;;8.62;100.00
43161;BME280;40968;52.342;5.528;2023-11-21T09:23:35;101662.94;;;9.18;100.00
43161;BME280;40968;52.342;5.528;2023-11-21T09:26:02;101559.38;;;8.56;100.00
43161;BME280;40968;52.342;5.528;2023-11-21T09:28:28;101692.63;;;9.29;100.00
43161;BME280;40968;52.342;5.528;2023-11-21T09:30:55;101611.69;;;8.78;100.00
43161;BME280;40968;52.342;5.528;2023-11-21T09:33:23;101696.34;;;9.27;100.00
43161;BME280;40968;52.342;5.528;2023-11-21T09:35:50;101694.78;;;9.23;100.00
43161;BME280;40968;52.342;5.528;2023-11-21T09:38:18;101668.38;;;9.01;100.00
43161;BME280;40968;52.342;5.528;2023-11-21T09:40:44;101576.38;;;8.38;100.00
43161;BME280;40968;52.342;5.528;2023-11-21T09:43:16;101721.97;;;9.15;100.00
43161;BME280;40968;52.342;5.528;2023-11-21T09:45:45;101528.84;;;7.93;100.00
43161;BME280;40968;52.342;5.528;2023-11-21T09:48:12;101696.44;;;8.92;100.00
43161;BME280;40968;52.342;5.528;2023-11-21T09:50:41;101706.72;;;9.00;100.00
43161;BME280;40968;52.342;5.528;2023-11-21T09:53:13;101734.53;;;9.13;100.00
43161;BME280;40968;52.342;5.528;2023-11-21T09:55:42;101746.13;;;9.13;100.00
43161;BME280;40968;52.342;5.528;2023-11-21T09:58:09;101729.53;;;9.07;100.00
43161;BME280;40968;52.342;5.528;2023-11-21T10:00:39;101746.13;;;9.13;100.00
43161;BME280;40968;52.342;5.528;2023-11-21T10:03:06;101661.22;;;8.68;100.00
43161;BME280;40968;52.342;5.528;2023-11-21T10:05:34;101648.25;;;8.60;100.00
43161;BME280;40968;52.342;5.528;2023-11-21T10:08:02;101663.28;;;8.62;100.00
43161;BME280;40968;52.342;5.528;2023-11-21T10:10:32;101716.03;;;8.92;100.00
43161;BME280;40968;52.342;5.528;2023-11-21T10:13:01;101720.50;;;8.92;100.00
43161;BME280;40968;52.342;5.528;2023-11-21T10:15:29;101743.06;;;9.04;100.00
43161;BME280;40968;52.342;5.528;2023-11-21T10:18:02;101764.56;;;9.18;100.00
43161;BME280;40968;52.342;5.528;2023-11-21T10:20:30;101641.19;;;8.41;100.00
43161;BME280;40968;52.342;5.528;2023-11-21T10:22:56;101739.00;;;8.96;100.00
43161;BME280;40968;52.342;5.528;2023-11-21T10:25:24;101780.78;;;9.15;100.00
43161;BME280;40968;52.342;5.528;2023-11-21T10:27:57;101703.25;;;8.64;100.00
43161;BME280;40968;52.342;5.528;2023-11-21T10:30:28;101745.59;;;8.89;100.00
43161;BME280;40968;52.342;5.528;2023-11-21T10:32:58;101804.69;;;9.18;100.00
43161;BME280;40968;52.342;5.528;2023-11-21T10:35:38;101803.75;;;9.19;100.00
43161;BME280;40968;52.342;5.528;2023-11-21T10:38:05;101809.91;;;9.21;100.00
43161;BME280;40968;52.342;5.528;2023-11-21T10:40:37;101810.66;;;9.23;100.00
43161;BME280;40968;52.342;5.528;2023-11-21T10:43:05;101820.41;;;9.24;100.00
43161;BME280;40968;52.342;5.528;2023-11-21T10:45:32;101776.59;;;8.93;100.00
43161;BME280;40968;52.342;5.528;2023-11-21T10:47:59;101714.66;;;8.50;100.00
43161;BME280;40968;52.342;5.528;2023-11-21T10:50:26;101720.63;;;8.55;100.00
43161;BME280;40968;52.342;5.528;2023-11-21T10:52:52;101773.13;;;8.91;100.00
43161;BME280;40968;52.342;5.528;2023-11-21T10:55:19;101695.47;;;8.42;100.00
43161;BME280;40968;52.342;5.528;2023-11-21T10:57:52;101834.13;;;9.18;100.00
43161;BME280;40968;52.342;5.528;2023-11-21T11:00:19;101836.97;;;9.15;100.00
43161;BME280;40968;52.342;5.528;2023-11-21T11:02:49;101833.25;;;9.18;100.00
43161;BME280;40968;52.342;5.528;2023-11-21T11:05:19;101834.19;;;9.17;100.00
43161;BME280;40968;52.342;5.528;2023-11-21T11:07:48;101698.22;;;8.40;100.00
43161;BME280;40968;52.342;5.528;2023-11-21T11:10:18;101832.41;;;9.17;100.00
43161;BME280;40968;52.342;5.528;2023-11-21T11:12:47;101766.00;;;8.74;100.00
43161;BME280;40968;52.342;5.528;2023-11-21T11:15:15;101786.03;;;8.83;100.00
43161;BME280;40968;52.342;5.528;2023-11-21T11:17:42;101808.69;;;8.93;100.00
43161;BME280;40968;52.342;5.528;2023-11-21T11:20:12;101813.53;;;9.03;100.00
43161;BME280;40968;52.342;5.528;2023-11-21T11:22:50;101852.69;;;9.21;99.98
43161;BME280;40968;52.342;5.528;2023-11-21T11:25:30;101795.16;;;8.79;99.89
43161;BME280;40968;52.342;5.528;2023-11-21T11:28:04;101858.13;;;9.20;99.59
43161;BME280;40968;52.342;5.528;2023-11-21T11:30:43;101858.03;;;9.21;99.12
43161;BME280;40968;52.342;5.528;2023-11-21T11:33:23;101862.44;;;9.22;98.98
43161;BME280;40968;52.342;5.528;2023-11-21T11:35:57;101708.53;;;8.30;98.62
43161;BME280;40968;52.342;5.528;2023-11-21T11:38:31;101847.16;;;9.24;98.59
43161;BME280;40968;52.342;5.528;2023-11-21T11:41:01;101806.94;;;8.92;98.18
43161;BME280;40968;52.342;5.528;2023-11-21T11:43:29;101875.78;;;9.40;98.14
43161;BME280;40968;52.342;5.528;2023-11-21T11:45:59;101841.69;;;9.27;97.75
43161;BME280;40968;52.342;5.528;2023-11-21T11:48:29;101871.78;;;9.49;97.59
43161;BME280;40968;52.342;5.528;2023-11-21T11:51:04;101882.41;;;9.50;97.00
43161;BME280;40968;52.342;5.528;2023-11-21T11:53:35;101820.13;;;9.13;96.78
43161;BME280;40968;52.342;5.528;2023-11-21T11:56:33;101837.97;;;9.12;96.86
43161;BME280;40968;52.342;5.528;2023-11-21T11:59:03;101767.00;;;8.72;96.74
43161;BME280;40968;52.342;5.528;2023-11-21T12:01:32;101891.69;;;9.43;96.75
43161;BME280;40968;52.342;5.528;2023-11-21T12:04:23;101777.69;;;8.72;96.91
43161;BME280;40968;52.342;5.528;2023-11-21T12:06:55;101911.03;;;9.48;97.25
43161;BME280;40968;52.342;5.528;2023-11-21T12:09:23;101911.03;;;9.48;97.38
43161;BME280;40968;52.342;5.528;2023-11-21T12:11:52;101771.91;;;8.63;97.56
43161;BME280;40968;52.342;5.528;2023-11-21T12:14:20;101864.72;;;9.12;97.81
43161;BME280;40968;52.342;5.528;2023-11-21T12:16:48;101909.28;;;9.47;98.04
43161;BME280;40968;52.342;5.528;2023-11-21T12:19:14;101914.66;;;9.47;98.27
43161;BME280;40968;52.342;5.528;2023-11-21T12:21:41;101910.09;;;9.49;98.47
43161;BME280;40968;52.342;5.528;2023-11-21T12:24:08;101909.28;;;9.47;98.20
43161;BME280;40968;52.342;5.528;2023-11-21T12:26:34;101913.09;;;9.43;97.99
43161;BME280;40968;52.342;5.528;2023-11-21T12:29:01;101792.16;;;8.68;97.76
43161;BME280;40968;52.342;5.528;2023-11-21T12:31:29;101841.53;;;8.95;98.10
43161;BME280;40968;52.342;5.528;2023-11-21T12:33:58;101884.72;;;9.23;98.13
43161;BME280;40968;52.342;5.528;2023-11-21T12:36:24;101906.97;;;9.41;97.83
43161;BME280;40968;52.342;5.528;2023-11-21T12:38:52;101861.41;;;9.07;97.48
43161;BME280;40968;52.342;5.528;2023-11-21T12:41:18;101917.66;;;9.41;97.51
43161;BME280;40968;52.342;5.528;2023-11-21T12:43:46;101839.66;;;8.98;97.48
43161;BME280;40968;52.342;5.528;2023-11-21T12:46:13;101885.94;;;9.16;97.24
43161;BME280;40968;52.342;5.528;2023-11-21T12:48:41;101923.25;;;9.36;97.19
43161;BME280;40968;52.342;5.528;2023-11-21T12:51:11;101925.06;;;9.36;97.31
43161;BME280;40968;52.342;5.528;2023-11-21T12:53:39;101906.97;;;9.23;97.46
43161;BME280;40968;52.342;5.528;2023-11-21T12:56:07;101797.47;;;8.50;97.04
43161;BME280;40968;52.342;5.528;2023-11-21T12:58:35;101945.44;;;9.38;96.96